sensor_id;sensor_type;location;lat;lon;timestamp;P1;durP1;ratioP1;P2;durP2;ratioP2
80172;SDS011;69497;41.708;44.804;2023-08-30T00:01:44;12.98;;;8.00;;
80172;SDS011;69497;41.708;44.804;2023-08-30T00:04:10;13.48;;;8.60;;
80172;SDS011;69497;41.708;44.804;2023-08-30T00:10:54;11.85;;;7.50;;
80172;SDS011;69497;41.708;44.804;2023-08-30T00:13:21;13.32;;;7.57;;
80172;SDS011;69497;41.708;44.804;2023-08-30T00:15:47;11.32;;;7.60;;
80172;SDS011;69497;41.708;44.804;2023-08-30T00:18:13;11.93;;;8.05;;
80172;SDS011;69497;41.708;44.804;2023-08-30T00:20:40;14.40;;;8.48;;
80172;SDS011;69497;41.708;44.804;2023-08-30T00:23:06;16.25;;;7.95;;
80172;SDS011;69497;41.708;44.804;2023-08-30T00:25:32;11.05;;;7.03;;
80172;SDS011;69497;41.708;44.804;2023-08-30T00:27:58;10.23;;;7.35;;
80172;SDS011;69497;41.708;44.804;2023-08-30T00:30:24;11.00;;;7.18;;
80172;SDS011;69497;41.708;44.804;2023-08-30T00:32:50;8.52;;;6.88;;
80172;SDS011;69497;41.708;44.804;2023-08-30T00:35:16;10.40;;;6.97;;
80172;SDS011;69497;41.708;44.804;2023-08-30T00:37:42;9.98;;;6.68;;
80172;SDS011;69497;41.708;44.804;2023-08-30T00:40:09;14.77;;;7.80;;
80172;SDS011;69497;41.708;44.804;2023-08-30T00:42:36;10.10;;;7.15;;
80172;SDS011;69497;41.708;44.804;2023-08-30T00:45:02;9.73;;;7.75;;
80172;SDS011;69497;41.708;44.804;2023-08-30T00:47:31;11.80;;;7.97;;
80172;SDS011;69497;41.708;44.804;2023-08-30T00:49:58;11.85;;;7.38;;
80172;SDS011;69497;41.708;44.804;2023-08-30T00:56:36;11.80;;;8.30;;
80172;SDS011;69497;41.708;44.804;2023-08-30T00:59:02;10.93;;;7.38;;
80172;SDS011;69497;41.708;44.804;2023-08-30T01:01:28;15.98;;;8.07;;
80172;SDS011;69497;41.708;44.804;2023-08-30T01:03:54;11.07;;;8.43;;
80172;SDS011;69497;41.708;44.804;2023-08-30T01:06:20;10.55;;;8.35;;
80172;SDS011;69497;41.708;44.804;2023-08-30T01:08:46;12.45;;;8.75;;
80172;SDS011;69497;41.708;44.804;2023-08-30T01:15:24;14.80;;;9.40;;
80172;SDS011;69497;41.708;44.804;2023-08-30T01:17:52;15.63;;;9.48;;
80172;SDS011;69497;41.708;44.804;2023-08-30T01:20:20;12.90;;;8.80;;
80172;SDS011;69497;41.708;44.804;2023-08-30T01:27:40;13.18;;;9.05;;
80172;SDS011;69497;41.708;44.804;2023-08-30T01:30:09;12.80;;;8.02;;
80172;SDS011;69497;41.708;44.804;2023-08-30T01:32:37;13.30;;;9.07;;
80172;SDS011;69497;41.708;44.804;2023-08-30T01:35:04;14.43;;;7.65;;
80172;SDS011;69497;41.708;44.804;2023-08-30T01:37:32;11.27;;;7.53;;
80172;SDS011;69497;41.708;44.804;2023-08-30T01:39:59;12.90;;;8.00;;
80172;SDS011;69497;41.708;44.804;2023-08-30T01:42:30;11.23;;;6.88;;
80172;SDS011;69497;41.708;44.804;2023-08-30T01:44:57;9.60;;;6.75;;
80172;SDS011;69497;41.708;44.804;2023-08-30T01:47:27;8.77;;;5.65;;
80172;SDS011;69497;41.708;44.804;2023-08-30T01:49:54;7.47;;;4.97;;
80172;SDS011;69497;41.708;44.804;2023-08-30T01:52:23;6.55;;;4.93;;
80172;SDS011;69497;41.708;44.804;2023-08-30T01:54:53;9.43;;;4.60;;
80172;SDS011;69497;41.708;44.804;2023-08-30T01:57:19;8.07;;;4.47;;
80172;SDS011;69497;41.708;44.804;2023-08-30T01:59:45;8.02;;;4.60;;
80172;SDS011;69497;41.708;44.804;2023-08-30T02:02:12;7.53;;;4.93;;
80172;SDS011;69497;41.708;44.804;2023-08-30T02:04:38;7.95;;;4.53;;
80172;SDS011;69497;41.708;44.804;2023-08-30T02:07:08;6.22;;;4.53;;
80172;SDS011;69497;41.708;44.804;2023-08-30T02:16:47;9.05;;;4.97;;
80172;SDS011;69497;41.708;44.804;2023-08-30T02:19:14;11.48;;;5.20;;
80172;SDS011;69497;41.708;44.804;2023-08-30T02:21:47;6.85;;;4.53;;
80172;SDS011;69497;41.708;44.804;2023-08-30T02:24:14;8.02;;;4.97;;
80172;SDS011;69497;41.708;44.804;2023-08-30T02:26:40;11.15;;;4.22;;
80172;SDS011;69497;41.708;44.804;2023-08-30T02:29:06;8.38;;;4.10;;
80172;SDS011;69497;41.708;44.804;2023-08-30T02:31:36;7.22;;;3.90;;
80172;SDS011;69497;41.708;44.804;2023-08-30T02:34:02;8.55;;;4.70;;
80172;SDS011;69497;41.708;44.804;2023-08-30T02:36:29;8.73;;;5.22;;
80172;SDS011;69497;41.708;44.804;2023-08-30T02:38:55;6.30;;;4.95;;
80172;SDS011;69497;41.708;44.804;2023-08-30T02:45:33;8.95;;;5.10;;
80172;SDS011;69497;41.708;44.804;2023-08-30T02:48:00;16.30;;;5.25;;
80172;SDS011;69497;41.708;44.804;2023-08-30T02:50:26;8.15;;;5.40;;
80172;SDS011;69497;41.708;44.804;2023-08-30T02:52:52;7.22;;;4.93;;
80172;SDS011;69497;41.708;44.804;2023-08-30T02:55:18;13.70;;;5.63;;
80172;SDS011;69497;41.708;44.804;2023-08-30T02:57:45;8.13;;;5.20;;
80172;SDS011;69497;41.708;44.804;2023-08-30T03:00:12;14.20;;;5.45;;
80172;SDS011;69497;41.708;44.804;2023-08-30T03:02:39;9.15;;;5.13;;
80172;SDS011;69497;41.708;44.804;2023-08-30T03:05:05;7.45;;;5.13;;
80172;SDS011;69497;41.708;44.804;2023-08-30T03:07:32;8.35;;;5.53;;
80172;SDS011;69497;41.708;44.804;2023-08-30T03:09:57;7.47;;;5.28;;
80172;SDS011;69497;41.708;44.804;2023-08-30T03:12:24;10.30;;;5.80;;
80172;SDS011;69497;41.708;44.804;2023-08-30T03:14:50;7.63;;;5.03;;
80172;SDS011;69497;41.708;44.804;2023-08-30T03:17:16;9.27;;;5.32;;
80172;SDS011;69497;41.708;44.804;2023-08-30T03:19:43;9.60;;;5.82;;
80172;SDS011;69497;41.708;44.804;2023-08-30T03:22:09;13.82;;;4.95;;
80172;SDS011;69497;41.708;44.804;2023-08-30T03:24:35;9.32;;;5.88;;
80172;SDS011;69497;41.708;44.804;2023-08-30T03:27:01;10.63;;;6.15;;
80172;SDS011;69497;41.708;44.804;2023-08-30T03:29:28;11.32;;;6.68;;
80172;SDS011;69497;41.708;44.804;2023-08-30T03:31:54;12.30;;;5.88;;
80172;SDS011;69497;41.708;44.804;2023-08-30T03:34:20;8.13;;;5.85;;
80172;SDS011;69497;41.708;44.804;2023-08-30T03:36:46;9.20;;;6.25;;
80172;SDS011;69497;41.708;44.804;2023-08-30T03:39:22;10.93;;;6.32;;
80172;SDS011;69497;41.708;44.804;2023-08-30T03:41:50;9.35;;;6.55;;
80172;SDS011;69497;41.708;44.804;2023-08-30T03:48:41;14.00;;;6.70;;
80172;SDS011;69497;41.708;44.804;2023-08-30T03:51:07;12.95;;;6.15;;
80172;SDS011;69497;41.708;44.804;2023-08-30T03:53:34;9.40;;;6.72;;
80172;SDS011;69497;41.708;44.804;2023-08-30T03:56:01;8.80;;;6.90;;
80172;SDS011;69497;41.708;44.804;2023-08-30T03:58:29;9.55;;;7.25;;
80172;SDS011;69497;41.708;44.804;2023-08-30T04:00:56;10.27;;;7.00;;
80172;SDS011;69497;41.708;44.804;2023-08-30T04:03:22;9.60;;;7.25;;
80172;SDS011;69497;41.708;44.804;2023-08-30T04:05:57;11.57;;;7.63;;
80172;SDS011;69497;41.708;44.804;2023-08-30T04:08:23;17.00;;;10.40;;
80172;SDS011;69497;41.708;44.804;2023-08-30T04:10:51;13.15;;;7.32;;
80172;SDS011;69497;41.708;44.804;2023-08-30T04:13:18;11.95;;;7.07;;
80172;SDS011;69497;41.708;44.804;2023-08-30T04:15:45;17.33;;;7.20;;
80172;SDS011;69497;41.708;44.804;2023-08-30T04:18:11;11.00;;;6.65;;
80172;SDS011;69497;41.708;44.804;2023-08-30T04:20:42;14.75;;;7.10;;
80172;SDS011;69497;41.708;44.804;2023-08-30T04:27:22;12.57;;;7.05;;
80172;SDS011;69497;41.708;44.804;2023-08-30T04:29:49;13.18;;;7.82;;
80172;SDS011;69497;41.708;44.804;2023-08-30T04:36:27;16.85;;;7.10;;
80172;SDS011;69497;41.708;44.804;2023-08-30T04:43:12;16.65;;;8.20;;
80172;SDS011;69497;41.708;44.804;2023-08-30T04:45:39;13.23;;;8.13;;
80172;SDS011;69497;41.708;44.804;2023-08-30T04:52:31;17.92;;;8.48;;
80172;SDS011;69497;41.708;44.804;2023-08-30T04:54:57;14.57;;;7.38;;
80172;SDS011;69497;41.708;44.804;2023-08-30T04:57:26;15.00;;;8.20;;
80172;SDS011;69497;41.708;44.804;2023-08-30T04:59:52;10.90;;;7.07;;
80172;SDS011;69497;41.708;44.804;2023-08-30T05:02:18;13.38;;;7.57;;
80172;SDS011;69497;41.708;44.804;2023-08-30T05:04:53;16.63;;;8.40;;
80172;SDS011;69497;41.708;44.804;2023-08-30T05:07:21;14.95;;;7.57;;
80172;SDS011;69497;41.708;44.804;2023-08-30T05:09:47;18.15;;;8.30;;
80172;SDS011;69497;41.708;44.804;2023-08-30T05:12:13;15.07;;;6.50;;
80172;SDS011;69497;41.708;44.804;2023-08-30T05:14:40;14.02;;;7.07;;
80172;SDS011;69497;41.708;44.804;2023-08-30T05:17:06;15.38;;;7.00;;
80172;SDS011;69497;41.708;44.804;2023-08-30T05:19:33;12.75;;;7.07;;
80172;SDS011;69497;41.708;44.804;2023-08-30T05:21:59;21.75;;;7.88;;
80172;SDS011;69497;41.708;44.804;2023-08-30T05:24:25;14.98;;;7.63;;
80172;SDS011;69497;41.708;44.804;2023-08-30T05:26:53;22.65;;;8.02;;
80172;SDS011;69497;41.708;44.804;2023-08-30T05:29:20;20.08;;;6.93;;
80172;SDS011;69497;41.708;44.804;2023-08-30T05:31:46;10.57;;;7.10;;
80172;SDS011;69497;41.708;44.804;2023-08-30T05:34:23;12.50;;;7.60;;
80172;SDS011;69497;41.708;44.804;2023-08-30T05:36:54;11.13;;;7.47;;
80172;SDS011;69497;41.708;44.804;2023-08-30T05:39:26;11.40;;;7.35;;
80172;SDS011;69497;41.708;44.804;2023-08-30T05:41:55;11.02;;;7.03;;
80172;SDS011;69497;41.708;44.804;2023-08-30T05:44:21;13.07;;;7.00;;
80172;SDS011;69497;41.708;44.804;2023-08-30T05:46:48;18.70;;;7.57;;
80172;SDS011;69497;41.708;44.804;2023-08-30T05:49:15;11.70;;;7.20;;
80172;SDS011;69497;41.708;44.804;2023-08-30T05:51:41;15.35;;;7.32;;
80172;SDS011;69497;41.708;44.804;2023-08-30T05:54:07;10.82;;;6.53;;
80172;SDS011;69497;41.708;44.804;2023-08-30T05:56:33;16.40;;;7.28;;
80172;SDS011;69497;41.708;44.804;2023-08-30T05:58:59;11.10;;;6.95;;
80172;SDS011;69497;41.708;44.804;2023-08-30T06:01:28;12.68;;;7.25;;
80172;SDS011;69497;41.708;44.804;2023-08-30T06:08:13;13.70;;;7.30;;
80172;SDS011;69497;41.708;44.804;2023-08-30T06:10:39;13.45;;;6.72;;
80172;SDS011;69497;41.708;44.804;2023-08-30T06:13:05;14.15;;;7.45;;
80172;SDS011;69497;41.708;44.804;2023-08-30T06:15:31;12.18;;;7.13;;
80172;SDS011;69497;41.708;44.804;2023-08-30T06:17:57;11.93;;;7.00;;
80172;SDS011;69497;41.708;44.804;2023-08-30T06:20:24;10.65;;;6.80;;
80172;SDS011;69497;41.708;44.804;2023-08-30T06:22:50;10.77;;;6.80;;
80172;SDS011;69497;41.708;44.804;2023-08-30T06:25:16;11.38;;;6.65;;
80172;SDS011;69497;41.708;44.804;2023-08-30T06:27:55;14.68;;;6.97;;
80172;SDS011;69497;41.708;44.804;2023-08-30T06:30:27;15.65;;;7.60;;
80172;SDS011;69497;41.708;44.804;2023-08-30T06:32:55;15.13;;;6.93;;
80172;SDS011;69497;41.708;44.804;2023-08-30T06:39:34;21.58;;;7.05;;
80172;SDS011;69497;41.708;44.804;2023-08-30T06:42:04;14.43;;;7.13;;
80172;SDS011;69497;41.708;44.804;2023-08-30T06:44:31;18.50;;;7.40;;
80172;SDS011;69497;41.708;44.804;2023-08-30T06:46:57;11.32;;;6.63;;
80172;SDS011;69497;41.708;44.804;2023-08-30T06:49:23;11.85;;;6.85;;
80172;SDS011;69497;41.708;44.804;2023-08-30T06:51:49;18.15;;;7.43;;
80172;SDS011;69497;41.708;44.804;2023-08-30T06:54:16;10.70;;;6.50;;
80172;SDS011;69497;41.708;44.804;2023-08-30T06:56:45;14.10;;;7.55;;
80172;SDS011;69497;41.708;44.804;2023-08-30T06:59:23;19.48;;;8.15;;
80172;SDS011;69497;41.708;44.804;2023-08-30T07:01:48;12.07;;;6.97;;
80172;SDS011;69497;41.708;44.804;2023-08-30T07:04:15;13.05;;;7.55;;
80172;SDS011;69497;41.708;44.804;2023-08-30T07:06:41;11.55;;;7.35;;
80172;SDS011;69497;41.708;44.804;2023-08-30T07:09:07;15.52;;;8.18;;
80172;SDS011;69497;41.708;44.804;2023-08-30T07:11:34;13.95;;;6.97;;
80172;SDS011;69497;41.708;44.804;2023-08-30T07:14:00;11.40;;;6.40;;
80172;SDS011;69497;41.708;44.804;2023-08-30T07:16:26;14.13;;;6.40;;
80172;SDS011;69497;41.708;44.804;2023-08-30T07:18:52;9.88;;;6.05;;
80172;SDS011;69497;41.708;44.804;2023-08-30T07:21:18;10.32;;;6.95;;
80172;SDS011;69497;41.708;44.804;2023-08-30T07:23:45;11.73;;;6.90;;
80172;SDS011;69497;41.708;44.804;2023-08-30T07:26:11;17.25;;;6.93;;
80172;SDS011;69497;41.708;44.804;2023-08-30T07:28:37;11.40;;;6.38;;
80172;SDS011;69497;41.708;44.804;2023-08-30T07:31:03;15.55;;;8.13;;
80172;SDS011;69497;41.708;44.804;2023-08-30T07:33:30;11.18;;;6.03;;
80172;SDS011;69497;41.708;44.804;2023-08-30T07:35:56;8.70;;;6.05;;
80172;SDS011;69497;41.708;44.804;2023-08-30T07:38:22;11.32;;;5.93;;
80172;SDS011;69497;41.708;44.804;2023-08-30T07:40:48;9.15;;;5.43;;
80172;SDS011;69497;41.708;44.804;2023-08-30T07:43:14;11.55;;;6.40;;
80172;SDS011;69497;41.708;44.804;2023-08-30T07:45:40;12.05;;;6.00;;
80172;SDS011;69497;41.708;44.804;2023-08-30T07:48:06;7.70;;;5.22;;
80172;SDS011;69497;41.708;44.804;2023-08-30T07:50:32;8.50;;;5.43;;
80172;SDS011;69497;41.708;44.804;2023-08-30T07:52:58;9.13;;;5.43;;
80172;SDS011;69497;41.708;44.804;2023-08-30T07:55:24;9.05;;;5.45;;
80172;SDS011;69497;41.708;44.804;2023-08-30T07:57:50;7.72;;;5.10;;
80172;SDS011;69497;41.708;44.804;2023-08-30T08:00:16;9.80;;;6.05;;
80172;SDS011;69497;41.708;44.804;2023-08-30T08:02:44;14.05;;;5.97;;
80172;SDS011;69497;41.708;44.804;2023-08-30T08:05:10;8.85;;;5.70;;
80172;SDS011;69497;41.708;44.804;2023-08-30T08:07:38;8.45;;;5.40;;
80172;SDS011;69497;41.708;44.804;2023-08-30T08:10:05;10.98;;;4.72;;
80172;SDS011;69497;41.708;44.804;2023-08-30T08:12:32;11.13;;;5.10;;
80172;SDS011;69497;41.708;44.804;2023-08-30T08:14:59;8.73;;;4.82;;
80172;SDS011;69497;41.708;44.804;2023-08-30T08:17:25;9.10;;;5.40;;
80172;SDS011;69497;41.708;44.804;2023-08-30T08:19:51;13.48;;;5.70;;
80172;SDS011;69497;41.708;44.804;2023-08-30T08:22:17;8.52;;;5.28;;
80172;SDS011;69497;41.708;44.804;2023-08-30T08:29:02;10.95;;;5.15;;
80172;SDS011;69497;41.708;44.804;2023-08-30T08:31:29;8.38;;;5.32;;
80172;SDS011;69497;41.708;44.804;2023-08-30T08:37:01;11.73;;;6.00;;
80172;SDS011;69497;41.708;44.804;2023-08-30T08:43:52;10.15;;;5.13;;
80172;SDS011;69497;41.708;44.804;2023-08-30T08:46:19;6.78;;;4.85;;
80172;SDS011;69497;41.708;44.804;2023-08-30T08:48:46;8.20;;;5.07;;
80172;SDS011;69497;41.708;44.804;2023-08-30T08:51:15;8.30;;;5.03;;
80172;SDS011;69497;41.708;44.804;2023-08-30T08:53:42;10.05;;;4.70;;
80172;SDS011;69497;41.708;44.804;2023-08-30T08:56:09;12.80;;;5.25;;
80172;SDS011;69497;41.708;44.804;2023-08-30T08:58:36;11.75;;;5.00;;
80172;SDS011;69497;41.708;44.804;2023-08-30T09:01:03;8.02;;;5.10;;
80172;SDS011;69497;41.708;44.804;2023-08-30T09:03:32;6.93;;;4.72;;
80172;SDS011;69497;41.708;44.804;2023-08-30T09:06:00;10.88;;;5.35;;
80172;SDS011;69497;41.708;44.804;2023-08-30T09:08:28;10.63;;;5.85;;
80172;SDS011;69497;41.708;44.804;2023-08-30T09:10:54;7.75;;;4.60;;
80172;SDS011;69497;41.708;44.804;2023-08-30T09:13:20;13.00;;;5.80;;
80172;SDS011;69497;41.708;44.804;2023-08-30T09:15:48;9.30;;;5.10;;
80172;SDS011;69497;41.708;44.804;2023-08-30T09:18:18;10.27;;;5.00;;
80172;SDS011;69497;41.708;44.804;2023-08-30T09:20:47;8.80;;;4.85;;
80172;SDS011;69497;41.708;44.804;2023-08-30T09:27:34;7.80;;;5.35;;
80172;SDS011;69497;41.708;44.804;2023-08-30T09:30:07;6.95;;;5.10;;
80172;SDS011;69497;41.708;44.804;2023-08-30T09:32:39;10.68;;;5.60;;
80172;SDS011;69497;41.708;44.804;2023-08-30T09:35:07;10.70;;;5.50;;
80172;SDS011;69497;41.708;44.804;2023-08-30T09:37:34;8.40;;;5.25;;
80172;SDS011;69497;41.708;44.804;2023-08-30T09:44:13;8.75;;;5.10;;
80172;SDS011;69497;41.708;44.804;2023-08-30T09:46:50;8.85;;;5.60;;
80172;SDS011;69497;41.708;44.804;2023-08-30T09:49:18;8.65;;;6.18;;
80172;SDS011;69497;41.708;44.804;2023-08-30T09:51:47;9.65;;;5.95;;
80172;SDS011;69497;41.708;44.804;2023-08-30T09:54:18;9.68;;;5.72;;
80172;SDS011;69497;41.708;44.804;2023-08-30T10:05:35;8.75;;;6.10;;
80172;SDS011;69497;41.708;44.804;2023-08-30T10:08:02;13.70;;;5.53;;
80172;SDS011;69497;41.708;44.804;2023-08-30T10:10:30;9.35;;;5.47;;
80172;SDS011;69497;41.708;44.804;2023-08-30T10:12:57;10.50;;;6.20;;
80172;SDS011;69497;41.708;44.804;2023-08-30T10:22:40;7.80;;;4.85;;
80172;SDS011;69497;41.708;44.804;2023-08-30T10:29:27;9.23;;;4.30;;
80172;SDS011;69497;41.708;44.804;2023-08-30T10:31:55;11.27;;;4.43;;
80172;SDS011;69497;41.708;44.804;2023-08-30T10:34:21;7.00;;;4.07;;
80172;SDS011;69497;41.708;44.804;2023-08-30T10:36:56;9.98;;;4.60;;
80172;SDS011;69497;41.708;44.804;2023-08-30T10:39:33;9.38;;;4.18;;
80172;SDS011;69497;41.708;44.804;2023-08-30T10:42:10;7.65;;;4.07;;
80172;SDS011;69497;41.708;44.804;2023-08-30T10:47:29;7.05;;;4.32;;
80172;SDS011;69497;41.708;44.804;2023-08-30T10:49:58;7.95;;;4.65;;
80172;SDS011;69497;41.708;44.804;2023-08-30T10:52:26;9.43;;;4.28;;
80172;SDS011;69497;41.708;44.804;2023-08-30T10:55:03;7.40;;;4.22;;
80172;SDS011;69497;41.708;44.804;2023-08-30T10:57:31;6.38;;;4.32;;
80172;SDS011;69497;41.708;44.804;2023-08-30T11:00:09;7.45;;;4.30;;
80172;SDS011;69497;41.708;44.804;2023-08-30T11:02:44;7.22;;;3.78;;
80172;SDS011;69497;41.708;44.804;2023-08-30T11:05:17;6.00;;;4.10;;
80172;SDS011;69497;41.708;44.804;2023-08-30T11:07:47;8.70;;;5.05;;
80172;SDS011;69497;41.708;44.804;2023-08-30T11:10:17;6.57;;;4.45;;
80172;SDS011;69497;41.708;44.804;2023-08-30T11:12:46;5.13;;;4.28;;
80172;SDS011;69497;41.708;44.804;2023-08-30T11:15:15;6.43;;;3.88;;
80172;SDS011;69497;41.708;44.804;2023-08-30T11:17:42;5.95;;;3.80;;
80172;SDS011;69497;41.708;44.804;2023-08-30T11:20:10;11.40;;;3.72;;
80172;SDS011;69497;41.708;44.804;2023-08-30T11:22:42;6.28;;;3.92;;
80172;SDS011;69497;41.708;44.804;2023-08-30T11:25:12;6.93;;;3.42;;
80172;SDS011;69497;41.708;44.804;2023-08-30T11:27:39;8.57;;;3.60;;
80172;SDS011;69497;41.708;44.804;2023-08-30T11:30:06;6.25;;;4.25;;
80172;SDS011;69497;41.708;44.804;2023-08-30T11:32:34;6.60;;;4.10;;
80172;SDS011;69497;41.708;44.804;2023-08-30T11:35:01;6.97;;;3.70;;
80172;SDS011;69497;41.708;44.804;2023-08-30T11:37:29;6.97;;;3.50;;
80172;SDS011;69497;41.708;44.804;2023-08-30T11:39:56;6.97;;;3.72;;
80172;SDS011;69497;41.708;44.804;2023-08-30T11:42:22;9.27;;;3.58;;
80172;SDS011;69497;41.708;44.804;2023-08-30T11:45:01;8.30;;;3.65;;
80172;SDS011;69497;41.708;44.804;2023-08-30T11:51:30;5.38;;;3.67;;
80172;SDS011;69497;41.708;44.804;2023-08-30T11:56:49;5.70;;;4.13;;
80172;SDS011;69497;41.708;44.804;2023-08-30T11:59:19;7.07;;;4.05;;
80172;SDS011;69497;41.708;44.804;2023-08-30T12:01:48;6.13;;;3.90;;
80172;SDS011;69497;41.708;44.804;2023-08-30T12:04:14;7.47;;;3.65;;
80172;SDS011;69497;41.708;44.804;2023-08-30T12:06:59;8.70;;;3.97;;
80172;SDS011;69497;41.708;44.804;2023-08-30T12:09:31;6.22;;;4.15;;
80172;SDS011;69497;41.708;44.804;2023-08-30T12:12:10;6.53;;;3.70;;
80172;SDS011;69497;41.708;44.804;2023-08-30T12:14:36;5.88;;;3.85;;
80172;SDS011;69497;41.708;44.804;2023-08-30T12:17:03;6.40;;;3.85;;
80172;SDS011;69497;41.708;44.804;2023-08-30T12:19:30;4.88;;;3.42;;
80172;SDS011;69497;41.708;44.804;2023-08-30T12:22:03;7.53;;;3.80;;
80172;SDS011;69497;41.708;44.804;2023-08-30T12:24:43;9.20;;;4.20;;
80172;SDS011;69497;41.708;44.804;2023-08-30T12:27:09;10.07;;;3.83;;
80172;SDS011;69497;41.708;44.804;2023-08-30T12:29:35;7.60;;;4.55;;
80172;SDS011;69497;41.708;44.804;2023-08-30T12:32:02;10.23;;;4.43;;
80172;SDS011;69497;41.708;44.804;2023-08-30T12:34:28;6.13;;;3.83;;
80172;SDS011;69497;41.708;44.804;2023-08-30T12:36:54;8.05;;;4.47;;
80172;SDS011;69497;41.708;44.804;2023-08-30T12:39:20;8.63;;;4.95;;
80172;SDS011;69497;41.708;44.804;2023-08-30T12:41:46;7.47;;;4.55;;
80172;SDS011;69497;41.708;44.804;2023-08-30T12:44:13;8.63;;;4.72;;
80172;SDS011;69497;41.708;44.804;2023-08-30T12:46:39;9.23;;;4.78;;
80172;SDS011;69497;41.708;44.804;2023-08-30T12:49:05;6.50;;;4.30;;
80172;SDS011;69497;41.708;44.804;2023-08-30T12:51:31;9.73;;;4.68;;
80172;SDS011;69497;41.708;44.804;2023-08-30T12:53:57;9.15;;;4.03;;
80172;SDS011;69497;41.708;44.804;2023-08-30T12:56:23;10.73;;;4.68;;
80172;SDS011;69497;41.708;44.804;2023-08-30T12:58:49;8.55;;;4.70;;
80172;SDS011;69497;41.708;44.804;2023-08-30T13:01:16;9.40;;;4.90;;
80172;SDS011;69497;41.708;44.804;2023-08-30T13:03:43;10.80;;;4.45;;
80172;SDS011;69497;41.708;44.804;2023-08-30T13:06:09;7.70;;;4.40;;
80172;SDS011;69497;41.708;44.804;2023-08-30T13:08:35;7.10;;;4.30;;
80172;SDS011;69497;41.708;44.804;2023-08-30T13:11:01;12.25;;;4.97;;
80172;SDS011;69497;41.708;44.804;2023-08-30T13:13:27;11.10;;;4.93;;
80172;SDS011;69497;41.708;44.804;2023-08-30T13:15:54;10.60;;;4.70;;
80172;SDS011;69497;41.708;44.804;2023-08-30T13:18:20;7.30;;;4.53;;
80172;SDS011;69497;41.708;44.804;2023-08-30T13:20:47;5.93;;;4.10;;
80172;SDS011;69497;41.708;44.804;2023-08-30T13:23:13;6.60;;;3.88;;
80172;SDS011;69497;41.708;44.804;2023-08-30T13:25:39;10.38;;;4.10;;
80172;SDS011;69497;41.708;44.804;2023-08-30T13:32:25;6.43;;;4.47;;
80172;SDS011;69497;41.708;44.804;2023-08-30T13:34:51;10.82;;;4.40;;
80172;SDS011;69497;41.708;44.804;2023-08-30T13:41:35;9.38;;;4.97;;
80172;SDS011;69497;41.708;44.804;2023-08-30T13:44:02;13.07;;;5.47;;
80172;SDS011;69497;41.708;44.804;2023-08-30T13:46:31;7.40;;;4.30;;
80172;SDS011;69497;41.708;44.804;2023-08-30T13:48:58;8.25;;;4.30;;
80172;SDS011;69497;41.708;44.804;2023-08-30T13:55:49;8.88;;;4.30;;
80172;SDS011;69497;41.708;44.804;2023-08-30T13:58:15;13.02;;;5.10;;
80172;SDS011;69497;41.708;44.804;2023-08-30T14:00:41;8.73;;;4.68;;
80172;SDS011;69497;41.708;44.804;2023-08-30T14:03:08;10.13;;;4.80;;
80172;SDS011;69497;41.708;44.804;2023-08-30T14:05:35;10.23;;;4.80;;
80172;SDS011;69497;41.708;44.804;2023-08-30T14:08:01;7.65;;;4.75;;
80172;SDS011;69497;41.708;44.804;2023-08-30T14:10:27;12.77;;;4.88;;
80172;SDS011;69497;41.708;44.804;2023-08-30T14:12:53;10.10;;;5.53;;
80172;SDS011;69497;41.708;44.804;2023-08-30T14:15:20;11.02;;;5.05;;
80172;SDS011;69497;41.708;44.804;2023-08-30T14:17:46;9.23;;;4.80;;
80172;SDS011;69497;41.708;44.804;2023-08-30T14:20:12;9.60;;;4.65;;
80172;SDS011;69497;41.708;44.804;2023-08-30T14:22:38;7.43;;;4.63;;
80172;SDS011;69497;41.708;44.804;2023-08-30T14:25:04;9.57;;;5.18;;
80172;SDS011;69497;41.708;44.804;2023-08-30T14:27:31;9.55;;;5.32;;
80172;SDS011;69497;41.708;44.804;2023-08-30T14:29:57;9.73;;;4.75;;
80172;SDS011;69497;41.708;44.804;2023-08-30T14:32:28;9.02;;;5.22;;
80172;SDS011;69497;41.708;44.804;2023-08-30T14:34:54;8.13;;;4.88;;
80172;SDS011;69497;41.708;44.804;2023-08-30T14:37:20;12.15;;;5.75;;
80172;SDS011;69497;41.708;44.804;2023-08-30T14:39:47;10.18;;;4.57;;
80172;SDS011;69497;41.708;44.804;2023-08-30T14:42:13;12.95;;;4.90;;
80172;SDS011;69497;41.708;44.804;2023-08-30T14:44:39;12.88;;;4.65;;
80172;SDS011;69497;41.708;44.804;2023-08-30T14:47:05;9.32;;;4.93;;
80172;SDS011;69497;41.708;44.804;2023-08-30T14:49:31;5.95;;;4.38;;
80172;SDS011;69497;41.708;44.804;2023-08-30T14:51:57;10.98;;;4.68;;
80172;SDS011;69497;41.708;44.804;2023-08-30T14:58:42;12.55;;;5.25;;
80172;SDS011;69497;41.708;44.804;2023-08-30T15:01:10;9.45;;;4.35;;
80172;SDS011;69497;41.708;44.804;2023-08-30T15:03:37;8.25;;;4.53;;
80172;SDS011;69497;41.708;44.804;2023-08-30T15:06:03;9.32;;;4.75;;
80172;SDS011;69497;41.708;44.804;2023-08-30T15:08:29;8.95;;;5.43;;
80172;SDS011;69497;41.708;44.804;2023-08-30T15:10:56;9.02;;;4.53;;
80172;SDS011;69497;41.708;44.804;2023-08-30T15:13:23;10.88;;;4.40;;
80172;SDS011;69497;41.708;44.804;2023-08-30T15:15:49;10.85;;;4.75;;
80172;SDS011;69497;41.708;44.804;2023-08-30T15:18:15;8.73;;;4.55;;
80172;SDS011;69497;41.708;44.804;2023-08-30T15:20:42;9.52;;;5.22;;
80172;SDS011;69497;41.708;44.804;2023-08-30T15:23:11;12.13;;;5.25;;
80172;SDS011;69497;41.708;44.804;2023-08-30T15:25:43;10.38;;;5.72;;
80172;SDS011;69497;41.708;44.804;2023-08-30T15:28:13;9.07;;;4.38;;
80172;SDS011;69497;41.708;44.804;2023-08-30T15:30:43;8.85;;;4.70;;
80172;SDS011;69497;41.708;44.804;2023-08-30T15:37:38;10.82;;;5.30;;
80172;SDS011;69497;41.708;44.804;2023-08-30T15:40:04;8.57;;;5.47;;
80172;SDS011;69497;41.708;44.804;2023-08-30T15:42:31;9.95;;;5.45;;
80172;SDS011;69497;41.708;44.804;2023-08-30T15:44:58;11.55;;;5.75;;
80172;SDS011;69497;41.708;44.804;2023-08-30T15:47:24;10.23;;;5.70;;
80172;SDS011;69497;41.708;44.804;2023-08-30T15:54:10;14.75;;;6.40;;
80172;SDS011;69497;41.708;44.804;2023-08-30T16:00:54;11.75;;;6.05;;
80172;SDS011;69497;41.708;44.804;2023-08-30T16:03:21;15.35;;;6.38;;
80172;SDS011;69497;41.708;44.804;2023-08-30T16:05:47;14.13;;;6.00;;
80172;SDS011;69497;41.708;44.804;2023-08-30T16:08:14;14.82;;;6.45;;
80172;SDS011;69497;41.708;44.804;2023-08-30T16:10:41;9.55;;;6.35;;
80172;SDS011;69497;41.708;44.804;2023-08-30T16:13:07;8.32;;;5.80;;
80172;SDS011;69497;41.708;44.804;2023-08-30T16:19:45;13.30;;;6.10;;
80172;SDS011;69497;41.708;44.804;2023-08-30T16:22:11;12.25;;;5.88;;
80172;SDS011;69497;41.708;44.804;2023-08-30T16:24:37;12.70;;;6.28;;
80172;SDS011;69497;41.708;44.804;2023-08-30T16:31:29;14.85;;;6.50;;
80172;SDS011;69497;41.708;44.804;2023-08-30T16:33:55;15.00;;;6.47;;
80172;SDS011;69497;41.708;44.804;2023-08-30T16:36:22;11.60;;;6.10;;
80172;SDS011;69497;41.708;44.804;2023-08-30T16:38:51;10.02;;;6.15;;
80172;SDS011;69497;41.708;44.804;2023-08-30T16:41:17;17.88;;;6.78;;
80172;SDS011;69497;41.708;44.804;2023-08-30T16:43:46;13.05;;;6.22;;
80172;SDS011;69497;41.708;44.804;2023-08-30T16:46:12;17.58;;;6.93;;
80172;SDS011;69497;41.708;44.804;2023-08-30T16:48:41;14.02;;;6.40;;
80172;SDS011;69497;41.708;44.804;2023-08-30T16:51:07;10.80;;;6.88;;
80172;SDS011;69497;41.708;44.804;2023-08-30T16:53:42;14.00;;;6.63;;
80172;SDS011;69497;41.708;44.804;2023-08-30T16:56:17;10.50;;;6.72;;
80172;SDS011;69497;41.708;44.804;2023-08-30T16:58:43;8.77;;;6.25;;